TimeCDT,TemperatureF,Dew PointF,Humidity,Sea Level PressureIn,VisibilityMPH,Wind Direction,Wind SpeedMPH,Gust SpeedMPH,PrecipitationIn,Events,Conditions,WindDirDegrees,DateUTC
12:12 AM,68.0,59.5,74,29.78,10.0,West,5.8,-,N/A,,Clear,260,2013-09-20 05:12:00
12:32 AM,67.3,57.7,71,29.78,10.0,West,9.2,-,N/A,,Clear,280,2013-09-20 05:32:00
12:52 AM,67.3,54.7,64,29.79,10.0,WNW,9.2,16.1,N/A,,Clear,300,2013-09-20 05:52:00
1:12 AM,66.6,54.5,65,29.79,10.0,WNW,10.4,-,N/A,,Clear,290,2013-09-20 06:12:00
1:32 AM,66.2,54.1,65,29.80,10.0,West,9.2,-,N/A,,Clear,270,2013-09-20 06:32:00
1:52 AM,65.1,53.8,67,29.80,10.0,West,9.2,-,N/A,,Clear,280,2013-09-20 06:52:00
2:12 AM,64.6,53.6,68,29.79,10.0,West,8.1,-,N/A,,Clear,280,2013-09-20 07:12:00
2:32 AM,64.2,53.6,68,29.80,10.0,West,11.5,-,N/A,,Scattered Clouds,280,2013-09-20 07:32:00
2:52 AM,63.7,53.2,69,29.80,10.0,West,9.2,-,N/A,,Overcast,270,2013-09-20 07:52:00
3:12 AM,63.5,53.6,70,29.81,10.0,West,11.5,16.1,N/A,,Overcast,280,2013-09-20 08:12:00
3:32 AM,63.3,53.6,71,29.81,10.0,West,6.9,-,N/A,,Overcast,280,2013-09-20 08:32:00
3:52 AM,63.0,53.8,72,29.81,10.0,West,10.4,16.1,N/A,,Overcast,280,2013-09-20 08:52:00
4:12 AM,62.6,53.6,72,29.81,10.0,WNW,9.2,-,N/A,,Mostly Cloudy,290,2013-09-20 09:12:00
4:32 AM,62.1,53.8,74,29.81,10.0,WNW,9.2,-,N/A,,Mostly Cloudy,290,2013-09-20 09:32:00
4:52 AM,61.5,53.6,75,29.81,10.0,West,8.1,-,N/A,,Mostly Cloudy,280,2013-09-20 09:52:00
5:12 AM,60.8,53.2,76,29.81,10.0,WNW,10.4,16.1,N/A,,Scattered Clouds,290,2013-09-20 10:12:00
5:32 AM,60.4,53.2,77,29.81,10.0,West,10.4,18.4,N/A,,Scattered Clouds,270,2013-09-20 10:32:00
5:52 AM,60.3,53.1,77,29.80,10.0,West,9.2,16.1,N/A,,Scattered Clouds,280,2013-09-20 10:52:00
6:12 AM,60.4,53.2,77,29.80,10.0,West,9.2,16.1,N/A,,Overcast,280,2013-09-20 11:12:00
6:32 AM,59.9,53.1,78,29.81,10.0,West,5.8,-,N/A,,Overcast,270,2013-09-20 11:32:00
6:52 AM,59.2,53.1,80,29.82,10.0,West,10.4,-,N/A,,Overcast,260,2013-09-20 11:52:00
7:12 AM,59.2,52.9,80,29.83,10.0,West,10.4,-,N/A,,Overcast,270,2013-09-20 12:12:00
7:32 AM,59.4,52.7,79,29.84,10.0,West,10.4,-,N/A,,Overcast,280,2013-09-20 12:32:00
7:52 AM,59.4,52.7,79,29.84,10.0,WSW,8.1,-,N/A,,Overcast,250,2013-09-20 12:52:00
8:12 AM,59.4,52.7,79,29.84,10.0,WSW,10.4,-,N/A,,Overcast,250,2013-09-20 13:12:00
8:32 AM,59.7,53.1,79,29.84,10.0,WSW,9.2,-,N/A,,Overcast,250,2013-09-20 13:32:00
8:52 AM,60.6,53.2,77,29.84,10.0,West,12.7,-,N/A,,Mostly Cloudy,260,2013-09-20 13:52:00
9:12 AM,61.0,53.6,77,29.84,10.0,West,10.4,-,N/A,,Mostly Cloudy,260,2013-09-20 14:12:00
9:32 AM,60.6,53.8,78,29.84,10.0,West,5.8,-,N/A,,Mostly Cloudy,260,2013-09-20 14:32:00
9:52 AM,63.0,54.3,73,29.84,10.0,WSW,10.4,-,N/A,,Scattered Clouds,250,2013-09-20 14:52:00
10:12 AM,63.3,54.5,73,29.84,10.0,West,9.2,-,N/A,,Overcast,280,2013-09-20 15:12:00
10:32 AM,63.1,54.7,74,29.85,10.0,West,9.2,-,N/A,,Overcast,270,2013-09-20 15:32:00
10:52 AM,63.0,55.2,76,29.85,10.0,West,8.1,-,N/A,,Overcast,270,2013-09-20 15:52:00
11:12 AM,63.0,56.1,78,29.85,10.0,WSW,6.9,-,N/A,,Overcast,250,2013-09-20 16:12:00
11:32 AM,64.2,54.1,70,29.85,10.0,WNW,8.1,-,N/A,,Overcast,300,2013-09-20 16:32:00
11:52 AM,63.0,54.0,72,29.86,7.0,NW,12.7,21.9,N/A,,Overcast,310,2013-09-20 16:52:00
12:12 PM,63.5,53.8,71,29.86,10.0,NW,18.4,21.9,N/A,,Overcast,310,2013-09-20 17:12:00
12:32 PM,62.8,53.8,72,29.86,10.0,NW,16.1,23.0,N/A,,Overcast,310,2013-09-20 17:32:00
12:52 PM,64.9,53.2,66,29.86,10.0,WNW,12.7,17.3,N/A,,Mostly Cloudy,290,2013-09-20 17:52:00
1:12 PM,64.8,51.3,62,29.86,10.0,WNW,15.0,18.4,N/A,,Mostly Cloudy,300,2013-09-20 18:12:00
1:32 PM,64.8,50.9,61,29.86,10.0,WNW,15.0,19.6,N/A,,Mostly Cloudy,300,2013-09-20 18:32:00
1:52 PM,65.8,50.5,58,29.86,10.0,WNW,12.7,19.6,N/A,,Mostly Cloudy,300,2013-09-20 18:52:00
2:12 PM,66.9,49.8,54,29.86,10.0,NW,10.4,19.6,N/A,,Scattered Clouds,310,2013-09-20 19:12:00
2:32 PM,66.7,49.1,53,29.85,10.0,NW,12.7,18.4,N/A,,Mostly Cloudy,320,2013-09-20 19:32:00
2:52 PM,66.9,49.1,53,29.86,10.0,WNW,15.0,21.9,N/A,,Overcast,290,2013-09-20 19:52:00
3:12 PM,66.2,47.7,51,29.85,10.0,WNW,12.7,20.7,N/A,,Mostly Cloudy,290,2013-09-20 20:12:00
3:32 PM,66.7,47.3,50,29.85,10.0,WNW,12.7,18.4,N/A,,Mostly Cloudy,290,2013-09-20 20:32:00
3:52 PM,66.9,46.8,48,29.85,10.0,WNW,15.0,18.4,N/A,,Overcast,300,2013-09-20 20:52:00
4:12 PM,66.7,47.1,49,29.85,10.0,NW,11.5,18.4,N/A,,Overcast,320,2013-09-20 21:12:00
4:32 PM,66.6,46.6,49,29.85,10.0,NW,11.5,17.3,N/A,,Overcast,310,2013-09-20 21:32:00
4:52 PM,66.2,46.2,49,29.85,10.0,NW,9.2,-,N/A,,Overcast,310,2013-09-20 21:52:00
5:12 PM,65.7,47.3,51,29.86,10.0,West,8.1,-,N/A,,Overcast,280,2013-09-20 22:12:00
5:32 PM,65.3,46.6,51,29.86,10.0,WNW,8.1,-,N/A,,Overcast,290,2013-09-20 22:32:00
5:52 PM,64.6,45.7,50,29.86,10.0,WNW,10.4,-,N/A,,Mostly Cloudy,290,2013-09-20 22:52:00
6:12 PM,63.9,46.6,53,29.87,10.0,WNW,6.9,-,N/A,,Mostly Cloudy,290,2013-09-20 23:12:00
6:32 PM,56.8,53.6,89,29.88,4.0,NNW,12.7,-,0.01,Rain,Light Rain,330,2013-09-20 23:32:00
6:52 PM,56.3,53.6,91,29.88,10.0,NW,10.4,17.3,0.01,,Overcast,310,2013-09-20 23:52:00
7:12 PM,56.5,53.8,91,29.89,10.0,NW,12.7,17.3,N/A,,Overcast,310,2013-09-21 00:12:00
7:32 PM,57.9,52.0,81,29.89,10.0,WNW,10.4,-,N/A,,Overcast,300,2013-09-21 00:32:00
7:52 PM,58.1,51.3,78,29.90,10.0,NW,9.2,-,N/A,,Overcast,310,2013-09-21 00:52:00
8:12 PM,58.3,50.9,76,29.90,10.0,WNW,9.2,-,N/A,,Overcast,300,2013-09-21 01:12:00
8:32 PM,58.1,50.5,76,29.91,10.0,NW,6.9,-,N/A,,Overcast,310,2013-09-21 01:32:00
8:52 PM,57.7,49.8,75,29.91,10.0,WNW,10.4,-,N/A,,Mostly Cloudy,300,2013-09-21 01:52:00
9:12 PM,57.2,49.5,75,29.92,10.0,WNW,8.1,16.1,N/A,,Scattered Clouds,300,2013-09-21 02:12:00
9:32 PM,56.7,49.3,76,29.92,10.0,WNW,5.8,-,N/A,,Clear,300,2013-09-21 02:32:00
9:52 PM,56.3,49.6,78,29.92,10.0,WNW,5.8,-,N/A,,Clear,290,2013-09-21 02:52:00
10:12 PM,56.3,49.8,79,29.92,10.0,WNW,4.6,-,N/A,,Clear,290,2013-09-21 03:12:00
10:32 PM,56.3,49.1,77,29.92,10.0,WNW,6.9,-,N/A,,Clear,290,2013-09-21 03:32:00
10:52 PM,55.6,48.9,78,29.93,10.0,West,5.8,-,N/A,,Clear,280,2013-09-21 03:52:00
11:12 PM,55.4,49.1,79,29.93,10.0,WNW,5.8,-,N/A,,Clear,300,2013-09-21 04:12:00
11:32 PM,55.4,48.4,77,29.93,10.0,WNW,8.1,-,N/A,,Clear,290,2013-09-21 04:32:00
11:52 PM,55.4,48.2,77,29.93,10.0,WNW,8.1,-,N/A,,Clear,300,2013-09-21 04:52:00